^^
Station Historical Data
Daily Summary for May 6, 2017 Units:  English    Metric   Both
« Previous Day
Next Day »
Daily Weekly Monthly Yearly Custom
  High: Low: Average:
Temperature: 65.4 °F 51.0 °F 59.5 °F
Dew Point: 60.8 °F 47.6 °F 55.2 °F
Humidity: 98% 66% 86%
Wind Speed: 8.0mph 0.0mph 2.9mph
Wind Gust: 21.0mph - -
Wind- - SSW
Pressure: 29.53 in 29.37 in -
Precipitation: 0.00 in    
Historical Graphs
 
 
Tabular Data for May 6, 2017
Time Temperature Dew Point Pressure Wind Wind Speed Wind Gust Humidity Rainfall Rate (Hourly) Conditions
00:00 57.3 °F 56.8 °F 29.53 in WSW 1.0 mph 5.0 mph 98% 0.00 in -RA
00:15 57.5 °F 56.9 °F 29.53 in Calm   3.0 mph 98% 0.00 in -RA
00:30 58.0 °F 57.4 °F 29.53 in South 1.0 mph 6.0 mph 98% 0.00 in -RA
00:45 59.1 °F 58.5 °F 29.52 in SSW 2.0 mph 7.0 mph 98% 0.00 in -RA
01:00 59.6 °F 59.0 °F 29.52 in SW 3.0 mph 14.0 mph 98% 0.00 in -RA
02:15 59.1 °F 58.5 °F 29.48 in SW 1.0 mph 18.0 mph 98% 0.00 in CLR
02:30 59.2 °F 58.6 °F 29.48 in SSW 2.0 mph 10.0 mph 98% 0.00 in CLR
02:45 59.6 °F 59.1 °F 29.46 in SW 6.0 mph 13.0 mph 98% 0.00 in CLR
03:00 60.1 °F 59.5 °F 29.45 in WSW 1.0 mph 16.0 mph 98% 0.00 in CLR
03:15 60.5 °F 59.9 °F 29.45 in SW 3.0 mph 6.0 mph 98% 0.00 in CLR
03:30 61.2 °F 60.6 °F 29.44 in WSW 3.0 mph 10.0 mph 98% 0.00 in CLR
03:45 61.4 °F 60.8 °F 29.44 in SSW 2.0 mph 15.0 mph 98% 0.00 in CLR
04:00 61.4 °F 60.8 °F 29.43 in SW 3.0 mph 13.0 mph 98% 0.00 in CLR
04:15 61.2 °F 60.6 °F 29.43 in SW 5.0 mph 13.0 mph 98% 0.00 in CLR
04:30 60.8 °F 60.2 °F 29.43 in SSW 8.0 mph 13.0 mph 98% 0.00 in CLR
04:45 60.4 °F 59.8 °F 29.42 in South 2.0 mph 15.0 mph 98% 0.00 in CLR
05:00 60.1 °F 59.6 °F 29.42 in SSW 2.0 mph 10.0 mph 98% 0.00 in CLR
05:15 60.0 °F 59.4 °F 29.41 in SW 2.0 mph 9.0 mph 98% 0.00 in CLR
05:30 60.0 °F 59.4 °F 29.41 in South 5.0 mph 10.0 mph 98% 0.00 in CLR
05:45 60.0 °F 59.4 °F 29.41 in SSW 5.0 mph 11.0 mph 98% 0.00 in CLR
06:00 59.8 °F 59.3 °F 29.41 in SSW 2.0 mph 13.0 mph 98% 0.00 in CLR
06:15 59.5 °F 58.9 °F 29.41 in SSW 6.0 mph 12.0 mph 98% 0.00 in CLR
06:30 59.1 °F 58.5 °F 29.42 in South 2.0 mph 12.0 mph 98% 0.00 in CLR
06:45 58.5 °F 58.0 °F 29.42 in SW 3.0 mph 14.0 mph 98% 0.00 in CLR
07:00 58.1 °F 57.5 °F 29.42 in South 1.0 mph 12.0 mph 98% 0.00 in CLR
07:15 57.8 °F 57.2 °F 29.41 in South 2.0 mph 8.0 mph 98% 0.00 in CLR
07:30 57.6 °F 57.0 °F 29.42 in SSW 3.0 mph 12.0 mph 98% 0.00 in CLR
07:45 57.4 °F 56.8 °F 29.42 in SSE 1.0 mph 7.0 mph 98% 0.00 in CLR
08:00 57.3 °F 56.7 °F 29.43 in SSW 1.0 mph 9.0 mph 98% 0.00 in CLR
08:15 57.3 °F 56.7 °F 29.42 in SW 2.0 mph 8.0 mph 98% 0.00 in CLR
08:30 57.4 °F 56.8 °F 29.42 in WSW 1.0 mph 7.0 mph 98% 0.00 in CLR
08:45 57.5 °F 56.9 °F 29.42 in Calm   5.0 mph 98% 0.00 in CLR
09:00 57.7 °F 57.1 °F 29.42 in SW 1.0 mph 5.0 mph 98% 0.00 in CLR
09:15 58.1 °F 57.5 °F 29.42 in SE 2.0 mph 9.0 mph 98% 0.00 in CLR
09:30 58.2 °F 57.6 °F 29.42 in SW 1.0 mph 6.0 mph 98% 0.00 in CLR
09:45 58.2 °F 57.4 °F 29.42 in West 2.0 mph 7.0 mph 97% 0.00 in CLR
10:00 58.0 °F 56.6 °F 29.42 in SSW 3.0 mph 12.0 mph 95% 0.00 in CLR
10:15 58.3 °F 55.1 °F 29.42 in WSW 2.0 mph 17.0 mph 89% 0.00 in BKN
10:30 59.8 °F 54.9 °F 29.42 in SSW 6.0 mph 13.0 mph 84% 0.00 in BKN
10:45 60.8 °F 55.6 °F 29.42 in South 2.0 mph 14.0 mph 83% 0.00 in BKN
11:00 61.0 °F 54.8 °F 29.42 in SSW 5.0 mph 21.0 mph 80% 0.00 in BKN
11:15 62.1 °F 54.8 °F 29.42 in SSW 3.0 mph 13.0 mph 77% 0.00 in SCT
11:30 63.3 °F 53.4 °F 29.41 in SSE 7.0 mph 18.0 mph 70% 0.00 in SCT
11:45 63.0 °F 53.1 °F 29.42 in SW 3.0 mph 20.0 mph 70% 0.00 in SCT
12:00 64.0 °F 53.2 °F 29.42 in South 5.0 mph 10.0 mph 68% 0.00 in SCT
12:15 63.2 °F 52.4 °F 29.42 in SW 5.0 mph 16.0 mph 68% 0.00 in SCT
12:30 62.8 °F 53.3 °F 29.42 in WSW 2.0 mph 17.0 mph 71% 0.00 in SCT
12:45 62.7 °F 52.8 °F 29.41 in SSW 7.0 mph 21.0 mph 70% 0.00 in SCT
13:00 63.7 °F 52.9 °F 29.41 in SSW 5.0 mph 14.0 mph 68% 0.00 in SCT
13:15 64.2 °F 53.4 °F 29.41 in SSW 7.0 mph 16.0 mph 68% 0.00 in SCT
13:30 64.4 °F 53.6 °F 29.41 in South 6.0 mph 17.0 mph 68% 0.00 in SCT
13:45 65.2 °F 53.9 °F 29.41 in SSW 6.0 mph 14.0 mph 67% 0.00 in SCT
14:00 65.4 °F 53.7 °F 29.41 in South 5.0 mph 16.0 mph 66% 0.00 in SCT
14:15 65.0 °F 53.4 °F 29.41 in WSW 5.0 mph 13.0 mph 66% 0.00 in SCT
14:30 64.7 °F 54.3 °F 29.42 in SE 2.0 mph 13.0 mph 69% 0.00 in SCT
14:45 63.0 °F 53.4 °F 29.42 in SSW 8.0 mph 15.0 mph 71% 0.00 in SCT
15:00 62.5 °F 54.1 °F 29.41 in SSW 3.0 mph 13.0 mph 74% 0.00 in SCT
15:15 63.2 °F 54.0 °F 29.41 in SW 7.0 mph 14.0 mph 72% 0.00 in SCT
15:30 63.2 °F 54.0 °F 29.40 in SSW 3.0 mph 14.0 mph 72% 0.00 in SCT
15:45 63.1 °F 53.9 °F 29.40 in WNW 3.0 mph 8.0 mph 72% 0.00 in SCT
16:00 61.9 °F 53.1 °F 29.40 in South 6.0 mph 12.0 mph 73% 0.00 in SCT
16:15 61.5 °F 53.5 °F 29.39 in SSW 3.0 mph 10.0 mph 75% 0.00 in BKN
16:30 61.4 °F 53.7 °F 29.40 in South 3.0 mph 9.0 mph 76% 0.00 in BKN
16:45 60.7 °F 53.5 °F 29.41 in SSW 3.0 mph 8.0 mph 77% 0.00 in BKN
17:00 60.3 °F 53.4 °F 29.41 in SW 3.0 mph 13.0 mph 78% 0.00 in BKN
17:15 60.1 °F 53.2 °F 29.41 in SSW 2.0 mph 10.0 mph 78% 0.00 in BKN
17:30 60.9 °F 54.0 °F 29.40 in NNE 3.0 mph 8.0 mph 78% 0.00 in BKN
17:45 62.9 °F 54.5 °F 29.39 in West 3.0 mph 7.0 mph 74% 0.00 in BKN
18:00 62.9 °F 54.8 °F 29.38 in SW 1.0 mph 17.0 mph 75% 0.00 in BKN
18:15 63.6 °F 54.8 °F 29.37 in WSW 1.0 mph 10.0 mph 73% 0.00 in SCT
18:30 62.4 °F 54.4 °F 29.39 in SSE 2.0 mph 8.0 mph 75% 0.00 in SCT
18:45 60.7 °F 54.2 °F 29.39 in NW 1.0 mph 9.0 mph 79% 0.00 in SCT
19:00 59.8 °F 54.0 °F 29.38 in SW 1.0 mph 8.0 mph 81% 0.00 in SCT
19:15 59.5 °F 54.0 °F 29.39 in South 1.0 mph 7.0 mph 82% 0.00 in BKN
19:30 59.1 °F 53.9 °F 29.38 in Calm   12.0 mph 83% 0.00 in BKN
19:45 58.8 °F 53.6 °F 29.37 in SW 2.0 mph 5.0 mph 83% 0.00 in BKN
20:15 58.1 °F 53.9 °F 29.40 in SSW 2.0 mph 6.0 mph 86% 0.00 in BKN
20:30 57.7 °F 54.1 °F 29.42 in SSW 2.0 mph 8.0 mph 88% 0.00 in BKN
20:45 56.4 °F 54.1 °F 29.42 in South 3.0 mph 6.0 mph 92% 0.00 in BKN
21:00 56.1 °F 54.1 °F 29.43 in SSE 3.0 mph 8.0 mph 93% 0.00 in BKN
21:15 55.3 °F 53.0 °F 29.44 in South 1.0 mph 12.0 mph 92% 0.00 in -RA
21:30 54.3 °F 51.4 °F 29.45 in SSW 3.0 mph 13.0 mph 90% 0.00 in -RA
21:45 53.7 °F 50.8 °F 29.46 in South 3.0 mph 12.0 mph 90% 0.00 in -RA
22:00 53.4 °F 50.6 °F 29.46 in SW 1.0 mph 12.0 mph 90% 0.00 in -RA
22:15 53.1 °F 50.6 °F 29.47 in SSW 1.0 mph 5.0 mph 91% 0.00 in SCT
22:30 52.5 °F 49.7 °F 29.47 in South 2.0 mph 9.0 mph 90% 0.00 in SCT
22:45 52.2 °F 48.8 °F 29.47 in SW 1.0 mph 12.0 mph 88% 0.00 in SCT
23:00 52.2 °F 48.4 °F 29.47 in SW 3.0 mph 14.0 mph 87% 0.00 in SCT
23:15 51.9 °F 47.9 °F 29.48 in SW 3.0 mph 12.0 mph 86% 0.00 in BKN
23:30 51.4 °F 47.7 °F 29.48 in SSW 5.0 mph 12.0 mph 87% 0.00 in BKN
23:45 51.0 °F 47.6 °F 29.48 in SSW 3.0 mph 10.0 mph 88% 0.00 in BKN
TarryTown NY Weather
Compliments of Weather Underground - 1.5 mb